sensor_id;sensor_type;location;lat;lon;timestamp;P1;durP1;ratioP1;P2;durP2;ratioP2
3841;SDS011;1936;47.074;15.336;2023-10-19T00:01:42;28.90;;;22.98;;
3841;SDS011;1936;47.074;15.336;2023-10-19T00:03:46;30.40;;;22.10;;
3841;SDS011;1936;47.074;15.336;2023-10-19T00:05:51;25.90;;;21.55;;
3841;SDS011;1936;47.074;15.336;2023-10-19T00:07:54;27.67;;;21.55;;
3841;SDS011;1936;47.074;15.336;2023-10-19T00:10:00;26.45;;;19.13;;
3841;SDS011;1936;47.074;15.336;2023-10-19T00:12:05;24.42;;;20.25;;
3841;SDS011;1936;47.074;15.336;2023-10-19T00:14:10;24.33;;;20.00;;
3841;SDS011;1936;47.074;15.336;2023-10-19T00:16:18;27.25;;;20.90;;
3841;SDS011;1936;47.074;15.336;2023-10-19T00:18:24;27.35;;;21.02;;
3841;SDS011;1936;47.074;15.336;2023-10-19T00:20:28;27.17;;;21.27;;
3841;SDS011;1936;47.074;15.336;2023-10-19T00:22:39;27.45;;;20.25;;
3841;SDS011;1936;47.074;15.336;2023-10-19T00:24:42;28.20;;;22.67;;
3841;SDS011;1936;47.074;15.336;2023-10-19T00:26:47;30.13;;;21.88;;
3841;SDS011;1936;47.074;15.336;2023-10-19T00:28:50;29.02;;;21.60;;
3841;SDS011;1936;47.074;15.336;2023-10-19T00:30:57;29.00;;;21.23;;
3841;SDS011;1936;47.074;15.336;2023-10-19T00:33:05;26.08;;;22.45;;
3841;SDS011;1936;47.074;15.336;2023-10-19T00:35:18;28.33;;;20.42;;
3841;SDS011;1936;47.074;15.336;2023-10-19T00:37:31;27.17;;;20.90;;
3841;SDS011;1936;47.074;15.336;2023-10-19T00:39:34;26.27;;;20.13;;
3841;SDS011;1936;47.074;15.336;2023-10-19T00:41:46;24.58;;;20.77;;
3841;SDS011;1936;47.074;15.336;2023-10-19T00:43:51;30.27;;;19.98;;
3841;SDS011;1936;47.074;15.336;2023-10-19T00:45:59;29.75;;;21.50;;
3841;SDS011;1936;47.074;15.336;2023-10-19T00:48:07;24.42;;;18.75;;
3841;SDS011;1936;47.074;15.336;2023-10-19T00:50:13;28.67;;;20.63;;
3841;SDS011;1936;47.074;15.336;2023-10-19T00:52:19;23.77;;;19.05;;
3841;SDS011;1936;47.074;15.336;2023-10-19T00:54:25;23.95;;;18.65;;
3841;SDS011;1936;47.074;15.336;2023-10-19T00:56:43;23.85;;;20.17;;
3841;SDS011;1936;47.074;15.336;2023-10-19T00:58:51;22.70;;;18.50;;
3841;SDS011;1936;47.074;15.336;2023-10-19T01:01:01;27.60;;;19.38;;
3841;SDS011;1936;47.074;15.336;2023-10-19T01:03:07;23.85;;;19.27;;
3841;SDS011;1936;47.074;15.336;2023-10-19T01:05:12;25.15;;;18.58;;
3841;SDS011;1936;47.074;15.336;2023-10-19T01:07:16;29.15;;;21.85;;
3841;SDS011;1936;47.074;15.336;2023-10-19T01:09:24;25.13;;;18.85;;
3841;SDS011;1936;47.074;15.336;2023-10-19T01:11:28;21.25;;;18.77;;
3841;SDS011;1936;47.074;15.336;2023-10-19T01:13:32;22.90;;;19.40;;
3841;SDS011;1936;47.074;15.336;2023-10-19T01:15:38;20.48;;;17.48;;
3841;SDS011;1936;47.074;15.336;2023-10-19T01:17:43;22.23;;;18.65;;
3841;SDS011;1936;47.074;15.336;2023-10-19T01:19:47;21.52;;;17.83;;
3841;SDS011;1936;47.074;15.336;2023-10-19T01:21:51;21.38;;;18.42;;
3841;SDS011;1936;47.074;15.336;2023-10-19T01:23:56;22.55;;;17.45;;
3841;SDS011;1936;47.074;15.336;2023-10-19T01:26:00;27.30;;;19.52;;
3841;SDS011;1936;47.074;15.336;2023-10-19T01:28:09;26.02;;;19.25;;
3841;SDS011;1936;47.074;15.336;2023-10-19T01:30:15;26.58;;;18.10;;
3841;SDS011;1936;47.074;15.336;2023-10-19T01:32:19;24.77;;;18.95;;
3841;SDS011;1936;47.074;15.336;2023-10-19T01:34:24;26.98;;;20.40;;
3841;SDS011;1936;47.074;15.336;2023-10-19T01:36:28;21.02;;;18.25;;
3841;SDS011;1936;47.074;15.336;2023-10-19T01:38:37;22.02;;;19.20;;
3841;SDS011;1936;47.074;15.336;2023-10-19T01:40:41;24.10;;;19.83;;
3841;SDS011;1936;47.074;15.336;2023-10-19T01:42:47;21.40;;;16.60;;
3841;SDS011;1936;47.074;15.336;2023-10-19T01:44:50;23.73;;;19.75;;
3841;SDS011;1936;47.074;15.336;2023-10-19T01:46:53;20.38;;;17.77;;
3841;SDS011;1936;47.074;15.336;2023-10-19T01:48:57;23.15;;;19.85;;
3841;SDS011;1936;47.074;15.336;2023-10-19T01:51:01;23.45;;;18.20;;
3841;SDS011;1936;47.074;15.336;2023-10-19T01:53:06;21.77;;;17.77;;
3841;SDS011;1936;47.074;15.336;2023-10-19T01:55:17;24.73;;;18.63;;
3841;SDS011;1936;47.074;15.336;2023-10-19T01:57:23;25.60;;;18.75;;
3841;SDS011;1936;47.074;15.336;2023-10-19T01:59:29;21.08;;;18.13;;
3841;SDS011;1936;47.074;15.336;2023-10-19T02:01:31;16.63;;;14.80;;
3841;SDS011;1936;47.074;15.336;2023-10-19T02:03:35;22.85;;;17.90;;
3841;SDS011;1936;47.074;15.336;2023-10-19T02:05:38;22.95;;;17.75;;
3841;SDS011;1936;47.074;15.336;2023-10-19T02:07:43;20.55;;;16.60;;
3841;SDS011;1936;47.074;15.336;2023-10-19T02:09:45;24.98;;;17.98;;
3841;SDS011;1936;47.074;15.336;2023-10-19T02:11:49;25.27;;;17.95;;
3841;SDS011;1936;47.074;15.336;2023-10-19T02:13:56;21.33;;;17.10;;
3841;SDS011;1936;47.074;15.336;2023-10-19T02:16:02;24.63;;;18.20;;
3841;SDS011;1936;47.074;15.336;2023-10-19T02:18:05;21.27;;;16.85;;
3841;SDS011;1936;47.074;15.336;2023-10-19T02:20:11;20.13;;;16.83;;
3841;SDS011;1936;47.074;15.336;2023-10-19T02:22:38;26.05;;;17.80;;
3841;SDS011;1936;47.074;15.336;2023-10-19T02:24:41;26.58;;;18.20;;
3841;SDS011;1936;47.074;15.336;2023-10-19T02:26:44;22.02;;;16.85;;
3841;SDS011;1936;47.074;15.336;2023-10-19T02:28:49;21.80;;;17.42;;
3841;SDS011;1936;47.074;15.336;2023-10-19T02:30:54;24.45;;;18.95;;
3841;SDS011;1936;47.074;15.336;2023-10-19T02:32:58;24.58;;;17.60;;
3841;SDS011;1936;47.074;15.336;2023-10-19T02:35:01;25.15;;;17.88;;
3841;SDS011;1936;47.074;15.336;2023-10-19T02:37:05;21.08;;;17.95;;
3841;SDS011;1936;47.074;15.336;2023-10-19T02:39:10;26.02;;;17.77;;
3841;SDS011;1936;47.074;15.336;2023-10-19T02:41:16;30.33;;;18.60;;
3841;SDS011;1936;47.074;15.336;2023-10-19T02:43:22;23.98;;;17.33;;
3841;SDS011;1936;47.074;15.336;2023-10-19T02:45:25;21.77;;;17.58;;
3841;SDS011;1936;47.074;15.336;2023-10-19T02:47:34;23.35;;;18.38;;
3841;SDS011;1936;47.074;15.336;2023-10-19T02:49:38;22.13;;;17.45;;
3841;SDS011;1936;47.074;15.336;2023-10-19T02:51:42;24.13;;;17.52;;
3841;SDS011;1936;47.074;15.336;2023-10-19T02:53:46;22.15;;;17.75;;
3841;SDS011;1936;47.074;15.336;2023-10-19T02:55:48;20.30;;;16.58;;
3841;SDS011;1936;47.074;15.336;2023-10-19T02:57:53;22.25;;;16.77;;
3841;SDS011;1936;47.074;15.336;2023-10-19T02:59:55;20.95;;;15.95;;
3841;SDS011;1936;47.074;15.336;2023-10-19T03:02:00;23.50;;;17.60;;
3841;SDS011;1936;47.074;15.336;2023-10-19T03:04:10;24.88;;;18.95;;
3841;SDS011;1936;47.074;15.336;2023-10-19T03:06:17;24.05;;;18.25;;
3841;SDS011;1936;47.074;15.336;2023-10-19T03:08:21;27.85;;;19.48;;
3841;SDS011;1936;47.074;15.336;2023-10-19T03:10:27;23.10;;;18.75;;
3841;SDS011;1936;47.074;15.336;2023-10-19T03:12:36;26.00;;;18.52;;
3841;SDS011;1936;47.074;15.336;2023-10-19T03:14:42;24.00;;;17.88;;
3841;SDS011;1936;47.074;15.336;2023-10-19T03:16:44;21.67;;;17.08;;
3841;SDS011;1936;47.074;15.336;2023-10-19T03:18:49;25.75;;;18.23;;
3841;SDS011;1936;47.074;15.336;2023-10-19T03:20:53;21.40;;;16.15;;
3841;SDS011;1936;47.074;15.336;2023-10-19T03:22:57;20.38;;;17.13;;
3841;SDS011;1936;47.074;15.336;2023-10-19T03:25:02;21.95;;;16.73;;
3841;SDS011;1936;47.074;15.336;2023-10-19T03:27:34;23.90;;;18.02;;
3841;SDS011;1936;47.074;15.336;2023-10-19T03:29:37;20.90;;;16.88;;
3841;SDS011;1936;47.074;15.336;2023-10-19T03:31:42;20.33;;;15.98;;
3841;SDS011;1936;47.074;15.336;2023-10-19T03:33:46;23.83;;;16.92;;
3841;SDS011;1936;47.074;15.336;2023-10-19T03:35:57;22.13;;;17.52;;
3841;SDS011;1936;47.074;15.336;2023-10-19T03:38:00;22.42;;;16.92;;
3841;SDS011;1936;47.074;15.336;2023-10-19T03:40:09;18.80;;;15.52;;
3841;SDS011;1936;47.074;15.336;2023-10-19T03:42:17;20.30;;;17.10;;
3841;SDS011;1936;47.074;15.336;2023-10-19T03:44:22;20.73;;;16.48;;
3841;SDS011;1936;47.074;15.336;2023-10-19T03:46:27;19.95;;;16.00;;
3841;SDS011;1936;47.074;15.336;2023-10-19T03:48:33;20.40;;;17.83;;
3841;SDS011;1936;47.074;15.336;2023-10-19T03:50:39;22.02;;;16.70;;
3841;SDS011;1936;47.074;15.336;2023-10-19T03:52:45;20.70;;;16.58;;
3841;SDS011;1936;47.074;15.336;2023-10-19T03:54:50;20.80;;;16.02;;
3841;SDS011;1936;47.074;15.336;2023-10-19T03:56:54;19.92;;;16.02;;
3841;SDS011;1936;47.074;15.336;2023-10-19T03:58:58;23.13;;;18.33;;
3841;SDS011;1936;47.074;15.336;2023-10-19T04:01:02;20.80;;;15.35;;
3841;SDS011;1936;47.074;15.336;2023-10-19T04:03:06;22.33;;;17.50;;
3841;SDS011;1936;47.074;15.336;2023-10-19T04:05:10;23.17;;;17.02;;
3841;SDS011;1936;47.074;15.336;2023-10-19T04:07:16;22.33;;;17.25;;
3841;SDS011;1936;47.074;15.336;2023-10-19T04:09:24;22.17;;;16.88;;
3841;SDS011;1936;47.074;15.336;2023-10-19T04:11:30;19.77;;;16.30;;
3841;SDS011;1936;47.074;15.336;2023-10-19T04:13:46;21.20;;;16.45;;
3841;SDS011;1936;47.074;15.336;2023-10-19T04:15:54;21.63;;;16.17;;
3841;SDS011;1936;47.074;15.336;2023-10-19T04:17:58;19.45;;;15.77;;
3841;SDS011;1936;47.074;15.336;2023-10-19T04:20:02;22.05;;;17.80;;
3841;SDS011;1936;47.074;15.336;2023-10-19T04:22:16;20.90;;;16.77;;
3841;SDS011;1936;47.074;15.336;2023-10-19T04:24:26;25.23;;;16.00;;
3841;SDS011;1936;47.074;15.336;2023-10-19T04:26:29;18.23;;;15.75;;
3841;SDS011;1936;47.074;15.336;2023-10-19T04:28:39;22.65;;;16.60;;
3841;SDS011;1936;47.074;15.336;2023-10-19T04:30:51;22.98;;;17.85;;
3841;SDS011;1936;47.074;15.336;2023-10-19T04:32:55;22.88;;;16.58;;
3841;SDS011;1936;47.074;15.336;2023-10-19T04:35:00;21.15;;;16.65;;
3841;SDS011;1936;47.074;15.336;2023-10-19T04:37:04;19.20;;;16.40;;
3841;SDS011;1936;47.074;15.336;2023-10-19T04:39:08;22.05;;;17.52;;
3841;SDS011;1936;47.074;15.336;2023-10-19T04:41:16;27.50;;;17.95;;
3841;SDS011;1936;47.074;15.336;2023-10-19T04:43:20;26.67;;;19.23;;
3841;SDS011;1936;47.074;15.336;2023-10-19T04:45:24;25.70;;;17.90;;
3841;SDS011;1936;47.074;15.336;2023-10-19T04:47:27;24.30;;;17.40;;
3841;SDS011;1936;47.074;15.336;2023-10-19T04:49:31;19.70;;;16.90;;
3841;SDS011;1936;47.074;15.336;2023-10-19T04:51:34;21.85;;;17.75;;
3841;SDS011;1936;47.074;15.336;2023-10-19T04:53:40;23.80;;;16.30;;
3841;SDS011;1936;47.074;15.336;2023-10-19T04:55:45;25.38;;;19.52;;
3841;SDS011;1936;47.074;15.336;2023-10-19T04:57:49;22.10;;;17.38;;
3841;SDS011;1936;47.074;15.336;2023-10-19T04:59:52;21.23;;;16.42;;
3841;SDS011;1936;47.074;15.336;2023-10-19T05:01:56;26.35;;;18.42;;
3841;SDS011;1936;47.074;15.336;2023-10-19T05:04:03;19.35;;;16.95;;
3841;SDS011;1936;47.074;15.336;2023-10-19T05:06:07;25.17;;;17.85;;
3841;SDS011;1936;47.074;15.336;2023-10-19T05:08:11;30.83;;;18.73;;
3841;SDS011;1936;47.074;15.336;2023-10-19T05:10:13;23.48;;;17.25;;
3841;SDS011;1936;47.074;15.336;2023-10-19T05:12:17;25.33;;;18.52;;
3841;SDS011;1936;47.074;15.336;2023-10-19T05:14:21;23.35;;;18.38;;
3841;SDS011;1936;47.074;15.336;2023-10-19T05:16:25;27.38;;;19.83;;
3841;SDS011;1936;47.074;15.336;2023-10-19T05:18:29;24.15;;;18.73;;
3841;SDS011;1936;47.074;15.336;2023-10-19T05:20:33;24.55;;;18.27;;
3841;SDS011;1936;47.074;15.336;2023-10-19T05:22:35;24.25;;;19.23;;
3841;SDS011;1936;47.074;15.336;2023-10-19T05:24:39;21.83;;;17.73;;
3841;SDS011;1936;47.074;15.336;2023-10-19T05:26:43;24.65;;;18.23;;
3841;SDS011;1936;47.074;15.336;2023-10-19T05:28:48;25.67;;;18.52;;
3841;SDS011;1936;47.074;15.336;2023-10-19T05:30:53;22.17;;;17.42;;
3841;SDS011;1936;47.074;15.336;2023-10-19T05:32:56;22.65;;;18.58;;
3841;SDS011;1936;47.074;15.336;2023-10-19T05:35:00;23.73;;;18.48;;
3841;SDS011;1936;47.074;15.336;2023-10-19T05:37:06;28.33;;;19.92;;
3841;SDS011;1936;47.074;15.336;2023-10-19T05:39:10;21.48;;;18.00;;
3841;SDS011;1936;47.074;15.336;2023-10-19T05:41:15;24.35;;;17.35;;
3841;SDS011;1936;47.074;15.336;2023-10-19T05:43:20;29.38;;;18.55;;
3841;SDS011;1936;47.074;15.336;2023-10-19T05:45:22;28.58;;;19.45;;
3841;SDS011;1936;47.074;15.336;2023-10-19T05:47:27;26.38;;;18.27;;
3841;SDS011;1936;47.074;15.336;2023-10-19T05:49:32;21.45;;;17.33;;
3841;SDS011;1936;47.074;15.336;2023-10-19T05:51:36;22.58;;;16.65;;
3841;SDS011;1936;47.074;15.336;2023-10-19T05:53:39;24.85;;;17.70;;
3841;SDS011;1936;47.074;15.336;2023-10-19T05:55:43;21.58;;;15.63;;
3841;SDS011;1936;47.074;15.336;2023-10-19T05:57:46;22.60;;;15.75;;
3841;SDS011;1936;47.074;15.336;2023-10-19T05:59:49;25.23;;;17.85;;
3841;SDS011;1936;47.074;15.336;2023-10-19T06:01:52;22.15;;;16.65;;
3841;SDS011;1936;47.074;15.336;2023-10-19T06:03:57;24.23;;;19.58;;
3841;SDS011;1936;47.074;15.336;2023-10-19T06:06:01;26.52;;;18.67;;
3841;SDS011;1936;47.074;15.336;2023-10-19T06:08:05;24.65;;;18.52;;
3841;SDS011;1936;47.074;15.336;2023-10-19T06:10:13;20.35;;;17.58;;
3841;SDS011;1936;47.074;15.336;2023-10-19T06:12:22;20.95;;;18.52;;
3841;SDS011;1936;47.074;15.336;2023-10-19T06:14:24;27.10;;;20.67;;
3841;SDS011;1936;47.074;15.336;2023-10-19T06:16:29;21.95;;;19.55;;
3841;SDS011;1936;47.074;15.336;2023-10-19T06:18:33;25.52;;;21.90;;
3841;SDS011;1936;47.074;15.336;2023-10-19T06:20:38;33.22;;;20.73;;
3841;SDS011;1936;47.074;15.336;2023-10-19T06:22:46;23.50;;;18.05;;
3841;SDS011;1936;47.074;15.336;2023-10-19T06:24:52;21.75;;;19.13;;
3841;SDS011;1936;47.074;15.336;2023-10-19T06:26:55;24.67;;;17.98;;
3841;SDS011;1936;47.074;15.336;2023-10-19T06:28:58;20.63;;;17.50;;
3841;SDS011;1936;47.074;15.336;2023-10-19T06:31:04;22.88;;;18.67;;
3841;SDS011;1936;47.074;15.336;2023-10-19T06:33:07;26.05;;;20.10;;
3841;SDS011;1936;47.074;15.336;2023-10-19T06:35:11;22.90;;;19.75;;
3841;SDS011;1936;47.074;15.336;2023-10-19T06:37:16;28.77;;;20.60;;
3841;SDS011;1936;47.074;15.336;2023-10-19T06:39:20;25.13;;;21.88;;
3841;SDS011;1936;47.074;15.336;2023-10-19T06:41:24;19.27;;;17.17;;
3841;SDS011;1936;47.074;15.336;2023-10-19T06:43:28;18.90;;;16.83;;
3841;SDS011;1936;47.074;15.336;2023-10-19T06:45:34;19.98;;;17.55;;
3841;SDS011;1936;47.074;15.336;2023-10-19T06:47:38;18.48;;;15.38;;
3841;SDS011;1936;47.074;15.336;2023-10-19T06:49:45;18.10;;;16.20;;
3841;SDS011;1936;47.074;15.336;2023-10-19T06:51:50;18.15;;;16.02;;
3841;SDS011;1936;47.074;15.336;2023-10-19T06:53:56;16.95;;;15.25;;
3841;SDS011;1936;47.074;15.336;2023-10-19T06:55:59;17.92;;;14.35;;
3841;SDS011;1936;47.074;15.336;2023-10-19T06:58:03;19.45;;;15.38;;
3841;SDS011;1936;47.074;15.336;2023-10-19T07:00:07;19.83;;;16.45;;
3841;SDS011;1936;47.074;15.336;2023-10-19T07:02:16;18.83;;;15.53;;
3841;SDS011;1936;47.074;15.336;2023-10-19T07:04:22;18.67;;;14.20;;
3841;SDS011;1936;47.074;15.336;2023-10-19T07:06:25;17.67;;;15.70;;
3841;SDS011;1936;47.074;15.336;2023-10-19T07:08:29;14.23;;;12.27;;
3841;SDS011;1936;47.074;15.336;2023-10-19T07:10:34;14.20;;;12.70;;
3841;SDS011;1936;47.074;15.336;2023-10-19T07:12:39;15.57;;;13.30;;
3841;SDS011;1936;47.074;15.336;2023-10-19T07:14:44;13.20;;;11.97;;
3841;SDS011;1936;47.074;15.336;2023-10-19T07:16:49;12.57;;;11.40;;
3841;SDS011;1936;47.074;15.336;2023-10-19T07:18:53;10.50;;;9.23;;
3841;SDS011;1936;47.074;15.336;2023-10-19T07:20:59;10.47;;;9.37;;
3841;SDS011;1936;47.074;15.336;2023-10-19T07:23:05;9.33;;;8.50;;
3841;SDS011;1936;47.074;15.336;2023-10-19T07:25:12;9.53;;;8.63;;
3841;SDS011;1936;47.074;15.336;2023-10-19T07:27:23;10.80;;;9.40;;
3841;SDS011;1936;47.074;15.336;2023-10-19T07:29:38;8.50;;;7.70;;
3841;SDS011;1936;47.074;15.336;2023-10-19T07:31:44;9.60;;;8.70;;
3841;SDS011;1936;47.074;15.336;2023-10-19T07:33:48;10.20;;;9.00;;
3841;SDS011;1936;47.074;15.336;2023-10-19T07:35:52;9.30;;;8.50;;
3841;SDS011;1936;47.074;15.336;2023-10-19T07:37:56;9.80;;;8.20;;
3841;SDS011;1936;47.074;15.336;2023-10-19T07:40:00;9.27;;;8.47;;
3841;SDS011;1936;47.074;15.336;2023-10-19T07:42:06;9.90;;;8.87;;
3841;SDS011;1936;47.074;15.336;2023-10-19T07:44:12;9.10;;;8.17;;
3841;SDS011;1936;47.074;15.336;2023-10-19T07:46:15;8.93;;;8.03;;
3841;SDS011;1936;47.074;15.336;2023-10-19T07:48:19;9.30;;;7.53;;
3841;SDS011;1936;47.074;15.336;2023-10-19T07:50:23;8.87;;;8.07;;
3841;SDS011;1936;47.074;15.336;2023-10-19T07:52:27;7.33;;;6.73;;
3841;SDS011;1936;47.074;15.336;2023-10-19T07:54:31;8.17;;;7.37;;
3841;SDS011;1936;47.074;15.336;2023-10-19T07:56:35;9.07;;;8.00;;
3841;SDS011;1936;47.074;15.336;2023-10-19T07:58:39;7.00;;;6.40;;
3841;SDS011;1936;47.074;15.336;2023-10-19T08:00:44;7.23;;;6.63;;
3841;SDS011;1936;47.074;15.336;2023-10-19T08:02:48;7.80;;;6.80;;
3841;SDS011;1936;47.074;15.336;2023-10-19T08:04:53;6.93;;;6.23;;
3841;SDS011;1936;47.074;15.336;2023-10-19T08:06:57;10.00;;;6.60;;
3841;SDS011;1936;47.074;15.336;2023-10-19T08:09:01;9.10;;;8.23;;
3841;SDS011;1936;47.074;15.336;2023-10-19T08:11:06;7.73;;;7.00;;
3841;SDS011;1936;47.074;15.336;2023-10-19T08:13:10;10.90;;;8.00;;
3841;SDS011;1936;47.074;15.336;2023-10-19T08:15:15;7.63;;;6.00;;
3841;SDS011;1936;47.074;15.336;2023-10-19T08:17:21;7.13;;;6.53;;
3841;SDS011;1936;47.074;15.336;2023-10-19T08:19:24;7.00;;;6.40;;
3841;SDS011;1936;47.074;15.336;2023-10-19T08:21:32;7.90;;;7.20;;
3841;SDS011;1936;47.074;15.336;2023-10-19T08:23:36;7.27;;;6.67;;
3841;SDS011;1936;47.074;15.336;2023-10-19T08:25:40;8.37;;;7.00;;
3841;SDS011;1936;47.074;15.336;2023-10-19T08:27:56;7.20;;;6.50;;
3841;SDS011;1936;47.074;15.336;2023-10-19T08:30:00;7.50;;;6.80;;
3841;SDS011;1936;47.074;15.336;2023-10-19T08:32:05;7.30;;;6.67;;
3841;SDS011;1936;47.074;15.336;2023-10-19T08:34:10;7.17;;;6.43;;
3841;SDS011;1936;47.074;15.336;2023-10-19T08:36:17;7.67;;;6.97;;
3841;SDS011;1936;47.074;15.336;2023-10-19T08:38:21;9.27;;;8.47;;
3841;SDS011;1936;47.074;15.336;2023-10-19T08:40:26;7.07;;;6.47;;
3841;SDS011;1936;47.074;15.336;2023-10-19T08:42:30;8.83;;;8.13;;
3841;SDS011;1936;47.074;15.336;2023-10-19T08:44:34;8.87;;;7.27;;
3841;SDS011;1936;47.074;15.336;2023-10-19T08:46:39;8.50;;;7.00;;
3841;SDS011;1936;47.074;15.336;2023-10-19T08:48:45;7.40;;;6.80;;
3841;SDS011;1936;47.074;15.336;2023-10-19T08:50:50;8.47;;;7.30;;
3841;SDS011;1936;47.074;15.336;2023-10-19T08:52:58;8.90;;;8.10;;
3841;SDS011;1936;47.074;15.336;2023-10-19T08:55:02;8.87;;;7.77;;
3841;SDS011;1936;47.074;15.336;2023-10-19T08:57:06;9.00;;;8.30;;
3841;SDS011;1936;47.074;15.336;2023-10-19T08:59:10;8.67;;;7.80;;
3841;SDS011;1936;47.074;15.336;2023-10-19T09:01:14;7.33;;;6.50;;
3841;SDS011;1936;47.074;15.336;2023-10-19T09:03:20;9.03;;;8.17;;
3841;SDS011;1936;47.074;15.336;2023-10-19T09:05:24;8.50;;;7.57;;
3841;SDS011;1936;47.074;15.336;2023-10-19T09:07:29;8.70;;;7.93;;
3841;SDS011;1936;47.074;15.336;2023-10-19T09:09:35;9.27;;;8.23;;
3841;SDS011;1936;47.074;15.336;2023-10-19T09:11:41;10.10;;;7.63;;
3841;SDS011;1936;47.074;15.336;2023-10-19T09:13:45;8.57;;;7.70;;
3841;SDS011;1936;47.074;15.336;2023-10-19T09:15:49;10.33;;;8.30;;
3841;SDS011;1936;47.074;15.336;2023-10-19T09:17:56;7.40;;;6.70;;
3841;SDS011;1936;47.074;15.336;2023-10-19T09:20:00;8.00;;;7.30;;
3841;SDS011;1936;47.074;15.336;2023-10-19T09:22:11;7.77;;;6.97;;
3841;SDS011;1936;47.074;15.336;2023-10-19T09:24:25;7.87;;;7.17;;
3841;SDS011;1936;47.074;15.336;2023-10-19T09:26:31;9.80;;;8.37;;
3841;SDS011;1936;47.074;15.336;2023-10-19T09:28:36;8.37;;;7.23;;
3841;SDS011;1936;47.074;15.336;2023-10-19T09:30:39;8.70;;;7.90;;
3841;SDS011;1936;47.074;15.336;2023-10-19T09:32:46;11.73;;;10.53;;
3841;SDS011;1936;47.074;15.336;2023-10-19T09:34:50;15.87;;;9.77;;
3841;SDS011;1936;47.074;15.336;2023-10-19T09:36:55;9.37;;;8.40;;
3841;SDS011;1936;47.074;15.336;2023-10-19T09:38:57;9.23;;;8.23;;
3841;SDS011;1936;47.074;15.336;2023-10-19T09:41:03;12.17;;;8.20;;
3841;SDS011;1936;47.074;15.336;2023-10-19T09:43:12;11.70;;;7.90;;
3841;SDS011;1936;47.074;15.336;2023-10-19T09:45:19;7.73;;;7.13;;
3841;SDS011;1936;47.074;15.336;2023-10-19T09:47:26;7.73;;;5.80;;
3841;SDS011;1936;47.074;15.336;2023-10-19T09:49:33;6.73;;;5.10;;
3841;SDS011;1936;47.074;15.336;2023-10-19T09:51:37;7.40;;;5.10;;
3841;SDS011;1936;47.074;15.336;2023-10-19T09:53:44;5.90;;;5.30;;
3841;SDS011;1936;47.074;15.336;2023-10-19T09:55:50;4.77;;;4.37;;
3841;SDS011;1936;47.074;15.336;2023-10-19T09:57:59;5.93;;;4.60;;
3841;SDS011;1936;47.074;15.336;2023-10-19T10:00:08;5.57;;;5.13;;
3841;SDS011;1936;47.074;15.336;2023-10-19T10:02:14;4.73;;;4.33;;
3841;SDS011;1936;47.074;15.336;2023-10-19T10:04:30;5.10;;;4.70;;
3841;SDS011;1936;47.074;15.336;2023-10-19T10:09:02;6.20;;;5.10;;
3841;SDS011;1936;47.074;15.336;2023-10-19T10:11:14;5.77;;;4.40;;
3841;SDS011;1936;47.074;15.336;2023-10-19T10:13:39;4.70;;;4.30;;
3841;SDS011;1936;47.074;15.336;2023-10-19T10:15:44;7.20;;;4.80;;
3841;SDS011;1936;47.074;15.336;2023-10-19T10:17:51;5.40;;;4.90;;
3841;SDS011;1936;47.074;15.336;2023-10-19T10:20:28;10.57;;;5.20;;
3841;SDS011;1936;47.074;15.336;2023-10-19T10:22:32;6.47;;;5.40;;
3841;SDS011;1936;47.074;15.336;2023-10-19T10:24:37;5.90;;;5.40;;
3841;SDS011;1936;47.074;15.336;2023-10-19T10:26:58;5.83;;;5.37;;
3841;SDS011;1936;47.074;15.336;2023-10-19T10:29:10;4.93;;;4.53;;
3841;SDS011;1936;47.074;15.336;2023-10-19T10:31:18;6.70;;;5.20;;
3841;SDS011;1936;47.074;15.336;2023-10-19T10:35:56;6.40;;;5.80;;
3841;SDS011;1936;47.074;15.336;2023-10-19T10:38:00;5.60;;;5.10;;
3841;SDS011;1936;47.074;15.336;2023-10-19T10:40:09;6.00;;;5.50;;
3841;SDS011;1936;47.074;15.336;2023-10-19T10:42:16;5.20;;;4.80;;
3841;SDS011;1936;47.074;15.336;2023-10-19T10:44:34;7.07;;;5.30;;
3841;SDS011;1936;47.074;15.336;2023-10-19T10:46:37;7.30;;;4.80;;
3841;SDS011;1936;47.074;15.336;2023-10-19T10:48:43;11.43;;;5.57;;
3841;SDS011;1936;47.074;15.336;2023-10-19T10:50:45;6.07;;;5.57;;
3841;SDS011;1936;47.074;15.336;2023-10-19T10:52:49;4.70;;;4.40;;
3841;SDS011;1936;47.074;15.336;2023-10-19T10:55:02;5.57;;;4.97;;
3841;SDS011;1936;47.074;15.336;2023-10-19T10:57:13;5.10;;;4.47;;
3841;SDS011;1936;47.074;15.336;2023-10-19T10:59:17;5.40;;;4.90;;
3841;SDS011;1936;47.074;15.336;2023-10-19T11:01:29;5.33;;;4.27;;
3841;SDS011;1936;47.074;15.336;2023-10-19T11:03:32;5.87;;;5.27;;
3841;SDS011;1936;47.074;15.336;2023-10-19T11:05:36;5.00;;;4.53;;
3841;SDS011;1936;47.074;15.336;2023-10-19T11:07:39;5.77;;;4.47;;
3841;SDS011;1936;47.074;15.336;2023-10-19T11:09:43;5.03;;;4.37;;
3841;SDS011;1936;47.074;15.336;2023-10-19T11:11:46;5.10;;;4.47;;
3841;SDS011;1936;47.074;15.336;2023-10-19T11:13:50;6.33;;;5.03;;
3841;SDS011;1936;47.074;15.336;2023-10-19T11:15:54;5.37;;;4.20;;
3841;SDS011;1936;47.074;15.336;2023-10-19T11:18:02;6.03;;;5.53;;
3841;SDS011;1936;47.074;15.336;2023-10-19T11:20:06;4.87;;;4.40;;
3841;SDS011;1936;47.074;15.336;2023-10-19T11:22:15;6.10;;;5.50;;
3841;SDS011;1936;47.074;15.336;2023-10-19T11:24:28;6.93;;;6.33;;
3841;SDS011;1936;47.074;15.336;2023-10-19T11:26:39;6.80;;;5.53;;
3841;SDS011;1936;47.074;15.336;2023-10-19T11:28:43;6.10;;;5.10;;
3841;SDS011;1936;47.074;15.336;2023-10-19T11:30:49;5.10;;;4.60;;
3841;SDS011;1936;47.074;15.336;2023-10-19T11:32:52;6.13;;;5.53;;
3841;SDS011;1936;47.074;15.336;2023-10-19T11:35:01;4.93;;;4.50;;
3841;SDS011;1936;47.074;15.336;2023-10-19T11:37:05;5.07;;;4.57;;
3841;SDS011;1936;47.074;15.336;2023-10-19T11:39:09;5.30;;;4.83;;
3841;SDS011;1936;47.074;15.336;2023-10-19T11:41:14;4.50;;;4.07;;
3841;SDS011;1936;47.074;15.336;2023-10-19T11:43:18;4.80;;;4.40;;
3841;SDS011;1936;47.074;15.336;2023-10-19T11:45:20;4.57;;;4.17;;
3841;SDS011;1936;47.074;15.336;2023-10-19T11:47:24;4.53;;;4.13;;
3841;SDS011;1936;47.074;15.336;2023-10-19T11:49:28;4.70;;;4.30;;
3841;SDS011;1936;47.074;15.336;2023-10-19T11:51:33;4.60;;;4.20;;
3841;SDS011;1936;47.074;15.336;2023-10-19T11:53:38;5.17;;;4.77;;
3841;SDS011;1936;47.074;15.336;2023-10-19T11:55:42;5.67;;;4.60;;
3841;SDS011;1936;47.074;15.336;2023-10-19T11:57:45;5.27;;;4.77;;
3841;SDS011;1936;47.074;15.336;2023-10-19T11:59:48;5.47;;;4.87;;
3841;SDS011;1936;47.074;15.336;2023-10-19T12:01:57;4.20;;;3.90;;
3841;SDS011;1936;47.074;15.336;2023-10-19T12:04:02;5.60;;;3.93;;
3841;SDS011;1936;47.074;15.336;2023-10-19T12:06:07;3.37;;;3.07;;
3841;SDS011;1936;47.074;15.336;2023-10-19T12:08:13;4.37;;;3.97;;
3841;SDS011;1936;47.074;15.336;2023-10-19T12:10:17;3.80;;;3.40;;
3841;SDS011;1936;47.074;15.336;2023-10-19T12:12:27;4.10;;;3.80;;
3841;SDS011;1936;47.074;15.336;2023-10-19T12:14:30;4.27;;;3.80;;
3841;SDS011;1936;47.074;15.336;2023-10-19T12:16:35;3.40;;;3.10;;
3841;SDS011;1936;47.074;15.336;2023-10-19T12:18:40;5.13;;;3.03;;
3841;SDS011;1936;47.074;15.336;2023-10-19T12:20:44;7.50;;;2.80;;
3841;SDS011;1936;47.074;15.336;2023-10-19T12:22:48;5.00;;;3.20;;
3841;SDS011;1936;47.074;15.336;2023-10-19T12:24:57;3.93;;;3.17;;
3841;SDS011;1936;47.074;15.336;2023-10-19T12:27:01;3.70;;;2.80;;
3841;SDS011;1936;47.074;15.336;2023-10-19T12:29:04;3.53;;;3.23;;
3841;SDS011;1936;47.074;15.336;2023-10-19T12:31:11;3.03;;;2.83;;
3841;SDS011;1936;47.074;15.336;2023-10-19T12:33:14;4.40;;;3.20;;
3841;SDS011;1936;47.074;15.336;2023-10-19T12:35:18;3.10;;;2.90;;
3841;SDS011;1936;47.074;15.336;2023-10-19T12:37:26;4.63;;;2.90;;
3841;SDS011;1936;47.074;15.336;2023-10-19T12:39:29;3.60;;;2.90;;
3841;SDS011;1936;47.074;15.336;2023-10-19T12:41:45;3.57;;;3.27;;